Time;durP1;ratioP1;P1;durP2;ratioP2;P2;SDS_P1;SDS_P2;PMS_P1;PMS_P2;Temp;Humidity;BMP_temperature;BMP_pressure;BME280_temperature;BME280_humidity;BME280_pressure;Samples;Min_cycle;Max_cycle;Signal;HPM_P1;HPM_P2
2024/01/06 00:01:28;;;;;;;3.17;2.88;;;10.40;82.50;;;;;;4951230;28;20947;-82
2024/01/06 00:03:57;;;;;;;3.77;3.47;;;10.40;82.50;;;;;;4947883;28;20226;-80
2024/01/06 00:06:26;;;;;;;2.87;2.67;;;10.40;83.20;;;;;;4947665;28;20998;-80
2024/01/06 00:08:54;;;;;;;7.40;2.27;;;10.40;82.40;;;;;;4945310;28;20210;-80
2024/01/06 00:11:27;;;;;;;4.80;3.47;;;10.40;82.30;;;;;;4947657;28;20198;-81
2024/01/06 00:13:55;;;;;;;4.13;2.67;;;10.40;82.20;;;;;;4941176;28;20202;-81
2024/01/06 00:16:24;;;;;;;2.20;2.07;;;10.40;82.30;;;;;;4941356;28;20245;-80
2024/01/06 00:18:56;;;;;;;4.77;4.30;;;10.40;82.30;;;;;;4937521;28;20751;-79
2024/01/06 00:21:25;;;;;;;5.20;3.27;;;10.40;82.70;;;;;;4941154;28;20327;-83
2024/01/06 00:23:55;;;;;;;6.67;3.37;;;10.40;82.60;;;;;;4941524;28;20280;-83
2024/01/06 00:26:24;;;;;;;4.17;2.37;;;10.40;82.70;;;;;;4948384;28;20671;-84
2024/01/06 00:28:55;;;;;;;12.93;4.13;;;10.50;82.90;;;;;;4950404;28;20229;-83
2024/01/06 00:31:23;;;;;;;4.30;3.90;;;10.40;82.90;;;;;;4950652;28;20209;-83
2024/01/06 00:33:54;;;;;;;4.70;3.30;;;10.50;82.80;;;;;;4947403;28;20222;-83
2024/01/06 00:36:23;;;;;;;5.10;4.17;;;10.50;83.00;;;;;;4949009;28;20285;-83
2024/01/06 00:38:51;;;;;;;4.40;4.03;;;10.50;83.00;;;;;;4944053;28;20261;-84
2024/01/06 00:41:20;;;;;;;6.67;4.47;;;10.50;83.00;;;;;;4946385;28;20206;-83
2024/01/06 00:43:48;;;;;;;2.77;2.47;;;10.50;83.30;;;;;;4949092;28;20195;-83
2024/01/06 00:46:18;;;;;;;3.60;3.10;;;10.50;83.30;;;;;;4949996;28;20309;-83
2024/01/06 00:48:47;;;;;;;5.83;3.50;;;10.50;83.30;;;;;;4944942;28;20242;-83
2024/01/06 00:51:16;;;;;;;9.10;4.17;;;10.50;83.30;;;;;;4949992;28;20198;-82
2024/01/06 00:53:45;;;;;;;4.70;3.97;;;10.50;83.30;;;;;;4949352;28;20216;-83
2024/01/06 00:56:13;;;;;;;5.50;3.53;;;10.50;83.20;;;;;;4950232;28;20242;-81
2024/01/06 00:58:42;;;;;;;3.10;2.73;;;10.50;83.50;;;;;;4904323;28;1265316;-81
2024/01/06 01:01:10;;;;;;;3.33;2.20;;;10.50;83.80;;;;;;4945059;28;20456;-82
2024/01/06 01:03:41;;;;;;;4.13;2.93;;;10.50;83.50;;;;;;4948149;28;20210;-81
2024/01/06 01:06:10;;;;;;;3.80;3.33;;;10.50;83.50;;;;;;4947076;28;20254;-82
2024/01/06 01:08:39;;;;;;;5.77;2.77;;;10.50;83.50;;;;;;4949999;28;20676;-79
2024/01/06 01:11:07;;;;;;;7.00;3.93;;;10.50;83.70;;;;;;4953121;28;20206;-82
2024/01/06 01:13:36;;;;;;;3.80;2.67;;;10.50;83.60;;;;;;4949786;28;20205;-84
2024/01/06 01:16:05;;;;;;;2.13;2.00;;;10.50;83.50;;;;;;4954134;28;20207;-82
2024/01/06 01:18:34;;;;;;;4.93;4.30;;;10.50;83.40;;;;;;4948755;28;21112;-82
2024/01/06 01:21:04;;;;;;;7.37;2.53;;;10.50;83.40;;;;;;4945937;28;20202;-81
2024/01/06 01:23:33;;;;;;;1.00;0.90;;;10.50;83.30;;;;;;4944242;28;20209;-83
2024/01/06 01:26:01;;;;;;;8.33;2.90;;;10.50;83.30;;;;;;4949391;28;20218;-81
2024/01/06 01:28:30;;;;;;;2.77;2.50;;;10.50;83.20;;;;;;4940933;28;20660;-82
2024/01/06 01:30:57;;;;;;;5.30;3.53;;;10.50;83.20;;;;;;4946228;28;20298;-82
2024/01/06 01:33:27;;;;;;;12.77;4.07;;;10.50;83.20;;;;;;4944206;28;20199;-82
2024/01/06 01:35:55;;;;;;;3.63;2.70;;;10.50;83.10;;;;;;4947889;28;20701;-82
2024/01/06 01:38:28;;;;;;;3.27;2.50;;;10.50;83.00;;;;;;4941788;28;20198;-81
2024/01/06 01:40:57;;;;;;;4.00;3.33;;;10.50;83.00;;;;;;4950346;28;20546;-81
2024/01/06 01:43:26;;;;;;;10.40;3.80;;;10.50;82.90;;;;;;4947667;28;20294;-82
2024/01/06 01:45:55;;;;;;;2.57;2.30;;;10.50;82.80;;;;;;4947445;28;20258;-83
2024/01/06 01:48:25;;;;;;;4.43;2.40;;;10.50;82.70;;;;;;4943688;28;20210;-84
2024/01/06 01:50:55;;;;;;;7.67;2.83;;;10.50;82.70;;;;;;4955468;28;20207;-82
2024/01/06 01:53:26;;;;;;;5.23;3.80;;;10.50;82.70;;;;;;4958174;28;20194;-83
2024/01/06 01:55:56;;;;;;;5.67;3.80;;;10.50;82.70;;;;;;4951860;28;20210;-84
2024/01/06 01:58:27;;;;;;;4.00;3.17;;;10.50;82.80;;;;;;4948987;28;20251;-83
2024/01/06 02:00:56;;;;;;;8.47;3.90;;;10.40;82.80;;;;;;4950489;28;20207;-84
2024/01/06 02:03:26;;;;;;;2.47;1.90;;;10.40;82.70;;;;;;4954562;28;20298;-85
2024/01/06 02:05:54;;;;;;;9.43;3.73;;;10.40;82.70;;;;;;4947755;28;20233;-84
2024/01/06 02:08:24;;;;;;;3.03;2.53;;;10.40;82.90;;;;;;4961922;28;20230;-83
2024/01/06 02:10:56;;;;;;;3.23;2.03;;;10.40;82.80;;;;;;4952002;28;20315;-84
2024/01/06 02:13:24;;;;;;;4.03;2.27;;;10.40;82.70;;;;;;4957591;28;20253;-83
2024/01/06 02:15:53;;;;;;;2.73;1.67;;;10.40;82.70;;;;;;4954718;28;20203;-83
2024/01/06 02:18:22;;;;;;;2.43;2.23;;;10.40;82.70;;;;;;4950327;28;20199;-82
2024/01/06 02:20:54;;;;;;;2.87;2.67;;;10.40;82.70;;;;;;4951715;28;20229;-83
2024/01/06 02:23:24;;;;;;;4.17;2.63;;;10.40;82.90;;;;;;4948848;28;20199;-80
2024/01/06 02:25:52;;;;;;;4.47;3.43;;;10.40;83.60;;;;;;4949710;28;20226;-82
2024/01/06 02:28:21;;;;;;;13.30;4.93;;;10.40;82.70;;;;;;4954460;28;21284;-85
2024/01/06 02:30:50;;;;;;;2.27;2.07;;;10.40;82.60;;;;;;4953776;28;20592;-84
2024/01/06 02:33:19;;;;;;;3.67;3.37;;;10.30;82.40;;;;;;4949006;28;20195;-83
2024/01/06 02:35:48;;;;;;;5.70;3.87;;;10.30;82.30;;;;;;4950423;28;20227;-82
2024/01/06 02:38:16;;;;;;;9.10;4.63;;;10.30;82.20;;;;;;4951373;28;20267;-85
2024/01/06 02:40:46;;;;;;;4.83;3.73;;;10.30;81.90;;;;;;4952090;28;20207;-83
2024/01/06 02:43:17;;;;;;;3.53;3.23;;;10.30;81.90;;;;;;4954079;28;20814;-85
2024/01/06 02:45:47;;;;;;;4.87;3.03;;;10.30;81.70;;;;;;4948594;28;20233;-84
2024/01/06 02:48:16;;;;;;;8.73;2.37;;;10.30;81.40;;;;;;4947118;28;20216;-83
2024/01/06 02:50:45;;;;;;;1.77;1.63;;;10.30;81.30;;;;;;4953950;28;20207;-85
2024/01/06 02:53:13;;;;;;;9.63;4.23;;;10.30;80.80;;;;;;4952787;28;20191;-86
2024/01/06 02:55:42;;;;;;;4.50;3.30;;;10.30;80.80;;;;;;4956511;28;20235;-86
2024/01/06 02:58:12;;;;;;;9.33;3.70;;;10.20;80.50;;;;;;4955320;28;20510;-83
2024/01/06 03:00:41;;;;;;;1.73;1.57;;;10.20;80.40;;;;;;4952132;28;20235;-84
2024/01/06 03:03:10;;;;;;;8.13;5.13;;;10.20;80.50;;;;;;4951719;28;20261;-85
2024/01/06 03:05:38;;;;;;;2.43;2.23;;;10.30;80.30;;;;;;4948476;28;20249;-84
2024/01/06 03:08:07;;;;;;;2.13;1.93;;;10.20;80.10;;;;;;4950345;28;20290;-84
2024/01/06 03:10:36;;;;;;;3.00;2.80;;;10.20;80.10;;;;;;4953088;28;20353;-85
2024/01/06 03:13:05;;;;;;;3.77;2.70;;;10.20;80.10;;;;;;4947167;28;20228;-83
2024/01/06 03:15:35;;;;;;;4.70;1.80;;;10.20;80.10;;;;;;4955782;28;20281;-83
2024/01/06 03:18:03;;;;;;;1.83;1.73;;;10.20;80.10;;;;;;4951725;28;20207;-84
2024/01/06 03:20:32;;;;;;;3.60;2.43;;;10.30;80.00;;;;;;4957661;28;20603;-82
2024/01/06 03:23:00;;;;;;;4.60;3.47;;;10.30;79.50;;;;;;4956344;28;20648;-82
2024/01/06 03:25:29;;;;;;;3.57;3.27;;;10.30;79.20;;;;;;4956195;28;20232;-82
2024/01/06 03:27:58;;;;;;;4.33;1.83;;;10.30;79.30;;;;;;4952120;28;20226;-82
2024/01/06 03:30:26;;;;;;;2.13;1.93;;;10.30;79.30;;;;;;4953426;28;20191;-82
2024/01/06 03:32:56;;;;;;;3.17;2.87;;;10.30;79.30;;;;;;4951419;28;20207;-82
2024/01/06 03:35:25;;;;;;;6.43;3.13;;;10.20;79.20;;;;;;4950194;28;20206;-82
2024/01/06 03:37:54;;;;;;;3.13;2.60;;;10.20;79.20;;;;;;4950691;28;20222;-81
2024/01/06 03:40:23;;;;;;;2.60;2.40;;;10.30;79.20;;;;;;4954129;28;20202;-82
2024/01/06 03:42:53;;;;;;;1.73;1.63;;;10.30;79.20;;;;;;4951025;28;20207;-82
2024/01/06 03:45:22;;;;;;;3.57;2.77;;;10.30;79.10;;;;;;4956865;28;20202;-85
2024/01/06 03:47:51;;;;;;;1.97;1.63;;;10.30;79.10;;;;;;4954544;28;20222;-81
2024/01/06 03:50:21;;;;;;;2.43;2.07;;;10.30;79.10;;;;;;4952764;28;20555;-82
2024/01/06 03:52:49;;;;;;;4.27;1.77;;;10.30;79.10;;;;;;4955677;28;20543;-91
2024/01/06 03:55:18;;;;;;;5.87;2.47;;;10.30;78.90;;;;;;4952206;28;20214;-90
2024/01/06 03:57:46;;;;;;;3.50;2.10;;;10.30;78.60;;;;;;4958714;28;20254;-90
2024/01/06 04:00:16;;;;;;;3.60;2.70;;;10.30;78.60;;;;;;4953837;28;20298;-89
2024/01/06 04:02:45;;;;;;;2.40;1.43;;;10.30;78.60;;;;;;4951172;28;20199;-91
2024/01/06 04:05:14;;;;;;;1.47;1.37;;;10.30;78.60;;;;;;4951135;28;20346;-91
2024/01/06 04:07:45;;;;;;;2.20;2.00;;;10.30;78.60;;;;;;4952358;28;20278;-91
2024/01/06 04:10:13;;;;;;;1.53;1.40;;;10.30;78.60;;;;;;4954760;28;20210;-91
2024/01/06 04:12:42;;;;;;;2.13;1.93;;;10.30;78.60;;;;;;4957654;28;20231;-91
2024/01/06 04:15:10;;;;;;;2.63;2.23;;;10.30;78.60;;;;;;4955393;28;20206;-91
2024/01/06 04:17:39;;;;;;;1.83;1.60;;;10.30;78.40;;;;;;4954169;28;20224;-91
2024/01/06 04:20:11;;;;;;;8.03;3.20;;;10.30;78.40;;;;;;4956099;28;20206;-90
2024/01/06 04:22:40;;;;;;;10.80;4.10;;;10.30;78.40;;;;;;4957066;28;20182;-90
2024/01/06 04:25:10;;;;;;;2.93;2.60;;;10.30;78.50;;;;;;4956024;28;20283;-90
2024/01/06 04:27:39;;;;;;;0.83;0.83;;;10.30;78.50;;;;;;4952643;28;20309;-91
2024/01/06 04:30:08;;;;;;;3.17;2.87;;;10.30;78.30;;;;;;4954495;28;20273;-91
2024/01/06 04:32:37;;;;;;;1.33;1.27;;;10.30;78.30;;;;;;4960417;28;20624;-91
2024/01/06 04:35:07;;;;;;;1.77;1.67;;;10.30;78.20;;;;;;4950522;28;20227;-92
2024/01/06 04:37:35;;;;;;;6.10;2.97;;;10.30;78.20;;;;;;4952398;28;20199;-91
2024/01/06 04:40:05;;;;;;;1.90;1.80;;;10.30;78.20;;;;;;4950347;28;20214;-91
2024/01/06 04:42:35;;;;;;;2.37;2.00;;;10.30;78.20;;;;;;4953906;28;20191;-91
2024/01/06 04:45:04;;;;;;;4.07;1.87;;;10.30;78.00;;;;;;4952816;28;20198;-91
2024/01/06 04:47:33;;;;;;;3.43;2.77;;;10.30;77.70;;;;;;4955660;28;20222;-92
2024/01/06 04:50:01;;;;;;;2.07;1.67;;;10.30;77.80;;;;;;4957065;28;20199;-92
2024/01/06 04:52:30;;;;;;;0.93;0.90;;;10.20;77.90;;;;;;4949002;28;20190;-92
2024/01/06 04:54:59;;;;;;;6.93;3.50;;;10.30;78.00;;;;;;4954612;28;20237;-92
2024/01/06 04:57:28;;;;;;;6.87;3.67;;;10.20;77.90;;;;;;4956159;28;20202;-92
2024/01/06 04:59:58;;;;;;;2.57;2.37;;;10.20;77.90;;;;;;4951916;28;20245;-90
2024/01/06 05:02:27;;;;;;;1.63;1.53;;;10.20;77.70;;;;;;4952119;28;20288;-91
2024/01/06 05:04:55;;;;;;;1.50;1.40;;;10.20;77.50;;;;;;4953390;28;20670;-91
2024/01/06 05:07:24;;;;;;;3.80;2.70;;;10.20;77.40;;;;;;4948621;28;20266;-92
2024/01/06 05:09:52;;;;;;;1.13;1.00;;;10.20;77.50;;;;;;4957498;28;20193;-92
2024/01/06 05:12:21;;;;;;;3.93;2.53;;;10.20;77.50;;;;;;4955040;28;20283;-91
2024/01/06 05:14:50;;;;;;;3.07;2.67;;;10.20;77.50;;;;;;4946207;28;20677;-84
2024/01/06 05:17:19;;;;;;;4.77;3.13;;;10.20;77.00;;;;;;4947791;28;20202;-84
2024/01/06 05:19:48;;;;;;;3.13;2.83;;;10.20;77.00;;;;;;4947123;28;20712;-83
2024/01/06 05:22:16;;;;;;;7.37;2.90;;;10.20;77.20;;;;;;4950674;28;20206;-84
2024/01/06 05:24:44;;;;;;;4.37;1.53;;;10.10;76.70;;;;;;4943086;28;20221;-84
2024/01/06 05:27:13;;;;;;;3.30;2.73;;;10.10;76.60;;;;;;4951356;28;20887;-84
2024/01/06 05:29:41;;;;;;;2.43;2.23;;;10.10;76.30;;;;;;4947529;28;20206;-85
2024/01/06 05:32:11;;;;;;;2.20;2.07;;;10.10;76.30;;;;;;4952212;28;20205;-84
2024/01/06 05:34:40;;;;;;;4.23;2.40;;;10.00;76.60;;;;;;4951082;28;20568;-83
2024/01/06 05:37:10;;;;;;;6.23;4.63;;;10.00;76.70;;;;;;4955478;28;20200;-85
2024/01/06 05:39:39;;;;;;;4.20;2.23;;;10.00;76.80;;;;;;4951784;28;20214;-84
2024/01/06 05:42:08;;;;;;;2.90;2.70;;;10.00;76.90;;;;;;4949710;28;20285;-82
2024/01/06 05:44:38;;;;;;;5.03;2.30;;;10.00;77.70;;;;;;4944746;28;20196;-81
2024/01/06 05:47:08;;;;;;;4.20;3.20;;;10.00;76.90;;;;;;4949446;28;20706;-80
2024/01/06 05:49:36;;;;;;;2.40;1.83;;;10.00;77.00;;;;;;4954573;28;20203;-80
2024/01/06 05:52:07;;;;;;;3.90;3.53;;;10.00;77.00;;;;;;4947423;28;20202;-82
2024/01/06 05:54:37;;;;;;;2.13;1.80;;;10.00;77.00;;;;;;4947529;28;20203;-80
2024/01/06 05:57:05;;;;;;;3.00;2.40;;;10.00;77.00;;;;;;4955308;28;20202;-80
2024/01/06 05:59:34;;;;;;;4.13;3.53;;;10.00;77.10;;;;;;4952137;28;20236;-84
2024/01/06 06:02:05;;;;;;;2.77;2.53;;;10.00;77.00;;;;;;4952869;28;20205;-84
2024/01/06 06:04:33;;;;;;;2.13;1.97;;;10.00;76.60;;;;;;4949878;28;20202;-83
2024/01/06 06:07:06;;;;;;;3.23;3.00;;;10.00;76.30;;;;;;4954289;28;20206;-81
2024/01/06 06:09:35;;;;;;;2.73;2.53;;;10.00;76.40;;;;;;4948296;28;20567;-81
2024/01/06 06:12:04;;;;;;;4.47;3.03;;;10.00;76.20;;;;;;4953757;28;20206;-82
2024/01/06 06:14:34;;;;;;;5.37;3.00;;;10.00;76.10;;;;;;4956406;28;20200;-81
2024/01/06 06:17:02;;;;;;;3.53;2.27;;;10.00;76.20;;;;;;4959008;28;20289;-90
2024/01/06 06:19:31;;;;;;;18.10;4.77;;;10.00;76.30;;;;;;4960016;28;20639;-89
2024/01/06 06:22:00;;;;;;;3.07;2.27;;;10.00;76.40;;;;;;4952391;28;20299;-88
2024/01/06 06:24:30;;;;;;;5.90;2.87;;;10.00;76.50;;;;;;4954040;28;20350;-89
2024/01/06 06:26:59;;;;;;;4.57;3.23;;;10.00;76.60;;;;;;4957665;28;20226;-90
2024/01/06 06:29:31;;;;;;;2.17;1.97;;;10.00;76.60;;;;;;4956999;28;20302;-90
2024/01/06 06:31:59;;;;;;;1.50;1.40;;;10.00;76.60;;;;;;4955015;28;20318;-92
2024/01/06 06:34:28;;;;;;;2.58;2.35;;;10.00;76.60;;;;;;4956534;28;20468;-90
2024/01/06 06:36:56;;;;;;;1.07;1.00;;;10.10;76.80;;;;;;4955335;28;20238;-90
2024/01/06 06:39:27;;;;;;;6.00;1.87;;;10.10;76.90;;;;;;4956564;28;20251;-90
2024/01/06 06:41:57;;;;;;;8.07;2.63;;;10.10;76.90;;;;;;4956900;28;20293;-90
2024/01/06 06:44:25;;;;;;;1.43;1.30;;;10.10;76.70;;;;;;4948597;28;20601;-90
2024/01/06 06:46:54;;;;;;;7.83;2.70;;;10.10;76.80;;;;;;4954154;28;20266;-92
2024/01/06 06:49:23;;;;;;;3.27;2.83;;;10.20;76.70;;;;;;4954963;28;20223;-92
2024/01/06 06:51:51;;;;;;;3.30;2.87;;;10.20;76.80;;;;;;4953862;28;20258;-90
2024/01/06 06:54:21;;;;;;;2.43;2.23;;;10.20;76.80;;;;;;4957774;28;20693;-91
2024/01/06 06:56:49;;;;;;;4.90;4.23;;;10.20;76.80;;;;;;4952329;28;20202;-89
2024/01/06 06:59:19;;;;;;;5.30;3.97;;;10.30;76.80;;;;;;4956633;28;20317;-87
2024/01/06 07:01:48;;;;;;;4.67;3.63;;;10.30;76.80;;;;;;4951541;28;20659;-86
2024/01/06 07:04:17;;;;;;;2.83;2.13;;;10.30;76.80;;;;;;4957715;28;20742;-88
2024/01/06 07:06:45;;;;;;;3.73;3.13;;;10.40;76.90;;;;;;4958100;28;20694;-90
2024/01/06 07:09:14;;;;;;;4.97;2.67;;;10.40;76.90;;;;;;4951116;28;20257;-79
2024/01/06 07:11:42;;;;;;;3.23;2.37;;;10.40;76.70;;;;;;4950383;28;20298;-82
2024/01/06 07:14:12;;;;;;;4.33;3.83;;;10.50;76.80;;;;;;4953827;28;20198;-82
2024/01/06 07:16:42;;;;;;;5.60;4.33;;;10.50;76.80;;;;;;4948721;28;20285;-80
2024/01/06 07:19:10;;;;;;;3.50;2.93;;;10.60;76.90;;;;;;4949458;28;20214;-83
2024/01/06 07:21:41;;;;;;;3.87;2.73;;;10.60;76.90;;;;;;4956643;28;20202;-81
2024/01/06 07:24:10;;;;;;;4.80;4.27;;;10.60;76.90;;;;;;4954807;29;20331;-90
2024/01/06 07:26:39;;;;;;;4.07;3.27;;;10.70;76.90;;;;;;4953698;28;20637;-90
2024/01/06 07:29:08;;;;;;;7.70;3.40;;;10.70;76.80;;;;;;4953802;28;20226;-92
2024/01/06 07:31:36;;;;;;;3.77;3.33;;;10.70;76.90;;;;;;4958034;28;20205;-91
2024/01/06 07:34:07;;;;;;;5.63;2.53;;;10.70;77.00;;;;;;4953711;28;20210;-90
2024/01/06 07:36:36;;;;;;;3.47;2.57;;;10.80;77.10;;;;;;4953198;28;20199;-91
2024/01/06 07:39:05;;;;;;;4.83;3.63;;;10.80;77.20;;;;;;4952420;28;20217;-84
2024/01/06 07:41:34;;;;;;;4.07;2.70;;;10.90;77.20;;;;;;4957531;28;20636;-85
2024/01/06 07:44:03;;;;;;;5.17;2.83;;;11.00;77.20;;;;;;4948456;28;20209;-83
2024/01/06 07:46:32;;;;;;;1.93;1.73;;;11.20;77.20;;;;;;4943608;28;20655;-83
2024/01/06 07:49:01;;;;;;;1.90;1.60;;;11.30;77.20;;;;;;4947269;28;20229;-83
2024/01/06 07:51:31;;;;;;;4.90;3.47;;;11.40;77.10;;;;;;4951947;28;20194;-81
2024/01/06 07:54:00;;;;;;;2.23;2.03;;;11.50;76.90;;;;;;4956851;28;20288;-84
2024/01/06 07:56:28;;;;;;;1.53;1.43;;;11.60;76.80;;;;;;4956025;28;20646;-85
2024/01/06 07:58:57;;;;;;;6.57;3.87;;;11.60;76.40;;;;;;4953462;28;20226;-85
2024/01/06 08:01:25;;;;;;;2.73;2.10;;;11.80;76.40;;;;;;4959245;28;20698;-92
2024/01/06 08:03:54;;;;;;;1.87;1.67;;;11.80;76.20;;;;;;4955954;28;20214;-94
2024/01/06 08:06:24;;;;;;;7.23;4.17;;;11.90;75.90;;;;;;4957633;28;20217;-93
2024/01/06 08:08:54;;;;;;;7.03;2.87;;;11.90;75.90;;;;;;4956861;28;20694;-94
2024/01/06 08:11:23;;;;;;;2.93;2.43;;;12.00;75.80;;;;;;4957205;28;20182;-93
2024/01/06 08:13:52;;;;;;;6.53;3.80;;;12.10;75.70;;;;;;4963169;28;20202;-94
2024/01/06 08:16:21;;;;;;;4.07;3.57;;;12.20;75.40;;;;;;4960159;28;20202;-92
2024/01/06 08:18:50;;;;;;;4.13;3.53;;;12.20;74.70;;;;;;4958078;28;20205;-94
2024/01/06 08:21:18;;;;;;;4.13;3.23;;;12.20;74.70;;;;;;4963160;28;20209;-94
2024/01/06 08:23:47;;;;;;;5.97;4.43;;;12.30;74.40;;;;;;4957795;28;20281;-93
2024/01/06 08:26:17;;;;;;;6.67;4.10;;;12.40;74.50;;;;;;4952813;28;20690;-90
2024/01/06 08:28:46;;;;;;;5.03;3.27;;;12.40;74.50;;;;;;4952374;28;20316;-85
2024/01/06 08:31:15;;;;;;;3.63;2.80;;;12.40;74.30;;;;;;4946604;28;20222;-82
2024/01/06 08:33:43;;;;;;;1.67;1.57;;;12.40;74.40;;;;;;4949751;28;20678;-83
2024/01/06 08:36:13;;;;;;;5.27;3.93;;;12.40;73.60;;;;;;4954063;28;20669;-93
2024/01/06 08:38:41;;;;;;;5.03;2.50;;;12.50;73.80;;;;;;4958320;28;20202;-93
2024/01/06 08:41:12;;;;;;;3.30;2.77;;;12.50;74.00;;;;;;4955859;28;20205;-93
2024/01/06 08:43:42;;;;;;;15.77;4.73;;;12.60;74.30;;;;;;4956869;28;20233;-92
2024/01/06 08:46:11;;;;;;;6.17;4.50;;;12.60;73.60;;;;;;4957084;28;20571;-93
2024/01/06 08:48:40;;;;;;;3.03;2.43;;;12.60;73.60;;;;;;4954659;28;20713;-93
2024/01/06 08:51:09;;;;;;;9.90;3.87;;;12.70;73.50;;;;;;4955565;28;20213;-91
2024/01/06 08:53:37;;;;;;;12.33;4.27;;;12.70;73.60;;;;;;4962130;28;20191;-92
2024/01/06 08:56:07;;;;;;;6.20;2.27;;;12.80;73.50;;;;;;4960982;28;20206;-92
2024/01/06 08:58:35;;;;;;;7.83;2.80;;;12.80;73.00;;;;;;4954906;28;20206;-87
2024/01/06 09:01:06;;;;;;;14.63;2.67;;;12.80;73.30;;;;;;4962620;28;20212;-86
2024/01/06 09:03:35;;;;;;;7.40;2.93;;;12.90;73.10;;;;;;4954424;28;20218;-86
2024/01/06 09:06:05;;;;;;;3.77;2.97;;;13.00;73.00;;;;;;4960682;28;20215;-90
2024/01/06 09:08:33;;;;;;;8.03;4.33;;;13.00;73.40;;;;;;4958913;28;20206;-91
2024/01/06 09:11:02;;;;;;;2.07;1.30;;;13.10;73.60;;;;;;4955251;28;20211;-91
2024/01/06 09:13:32;;;;;;;2.57;2.03;;;13.10;73.50;;;;;;4954652;28;20658;-85
2024/01/06 09:16:01;;;;;;;2.43;1.73;;;13.20;73.60;;;;;;4956520;28;20240;-81
2024/01/06 09:18:32;;;;;;;4.90;2.50;;;13.30;73.50;;;;;;4949983;28;20202;-82
2024/01/06 09:21:01;;;;;;;5.23;3.10;;;13.30;73.50;;;;;;4952542;28;20199;-81
2024/01/06 09:23:32;;;;;;;5.27;3.63;;;13.30;72.50;;;;;;4949423;28;20297;-82
2024/01/06 09:26:01;;;;;;;4.17;3.53;;;13.30;72.50;;;;;;4950712;28;20206;-83
2024/01/06 09:28:30;;;;;;;5.57;3.30;;;13.40;72.50;;;;;;4954514;28;20727;-83
2024/01/06 09:30:58;;;;;;;3.97;2.37;;;13.40;71.80;;;;;;4949704;28;20225;-83
2024/01/06 09:33:27;;;;;;;3.07;2.63;;;13.30;70.90;;;;;;4954637;28;20199;-82
2024/01/06 09:35:57;;;;;;;7.83;3.00;;;13.30;70.90;;;;;;4951702;28;20203;-84
2024/01/06 09:38:26;;;;;;;8.47;3.23;;;13.40;71.30;;;;;;4954253;28;20210;-84
2024/01/06 09:40:57;;;;;;;2.33;2.13;;;13.40;71.60;;;;;;4957247;28;20224;-83
2024/01/06 09:43:27;;;;;;;6.53;1.60;;;13.40;71.50;;;;;;4956391;28;20234;-84
2024/01/06 09:46:04;;;;;;;4.63;2.93;;;13.50;71.90;;;;;;4956101;28;20203;-84
2024/01/06 09:48:39;;;;;;;5.03;2.87;;;13.50;71.80;;;;;;4951220;28;20274;-82
2024/01/06 09:51:12;;;;;;;2.50;2.30;;;13.60;71.70;;;;;;4953924;28;20253;-84
2024/01/06 09:53:48;;;;;;;5.67;3.13;;;13.60;71.60;;;;;;4949897;28;20267;-83
2024/01/06 09:56:18;;;;;;;2.07;1.97;;;13.70;71.70;;;;;;4951358;28;20296;-84
2024/01/06 09:58:46;;;;;;;16.03;4.30;;;13.80;71.20;;;;;;4957503;28;20218;-85
2024/01/06 10:01:16;;;;;;;2.40;2.20;;;13.90;70.60;;;;;;4949825;28;20211;-86
2024/01/06 10:03:46;;;;;;;3.20;1.93;;;14.00;70.80;;;;;;4950478;28;20707;-84
2024/01/06 10:06:17;;;;;;;6.03;3.10;;;14.10;71.10;;;;;;4955468;28;20281;-84
2024/01/06 10:08:50;;;;;;;6.00;4.60;;;14.20;70.10;;;;;;4950862;28;20255;-85
2024/01/06 10:11:20;;;;;;;3.33;2.90;;;14.40;70.30;;;;;;4966441;28;20313;-86
2024/01/06 10:13:50;;;;;;;4.17;2.20;;;14.50;69.80;;;;;;4951709;28;20202;-88
2024/01/06 10:16:20;;;;;;;11.70;3.40;;;14.60;70.30;;;;;;4951024;28;20205;-87
2024/01/06 10:18:49;;;;;;;4.97;2.67;;;14.70;70.30;;;;;;4948989;28;20573;-86
2024/01/06 10:21:23;;;;;;;5.67;3.40;;;14.70;70.30;;;;;;4949716;28;20648;-84
2024/01/06 10:23:52;;;;;;;2.87;2.27;;;14.70;70.20;;;;;;4958968;28;20201;-85
2024/01/06 10:26:20;;;;;;;2.67;2.37;;;14.70;69.40;;;;;;4951941;28;20766;-86
2024/01/06 10:28:50;;;;;;;3.67;2.27;;;14.80;70.00;;;;;;4948713;28;20206;-86
2024/01/06 10:31:19;;;;;;;4.37;2.07;;;14.80;70.00;;;;;;4955277;28;20576;-86
2024/01/06 10:33:49;;;;;;;2.07;1.87;;;14.80;69.70;;;;;;4953540;28;20575;-86
2024/01/06 10:36:18;;;;;;;2.03;1.83;;;14.90;70.10;;;;;;4951160;28;20191;-86
2024/01/06 10:38:48;;;;;;;2.73;1.97;;;14.90;70.00;;;;;;4954982;28;20206;-87
2024/01/06 10:41:18;;;;;;;5.53;1.67;;;14.90;69.90;;;;;;4950752;28;20289;-84
2024/01/06 10:43:49;;;;;;;2.87;2.50;;;15.00;69.80;;;;;;4952605;28;20647;-83
2024/01/06 10:46:19;;;;;;;6.37;3.57;;;15.10;69.60;;;;;;4954522;28;20288;-88
2024/01/06 10:48:49;;;;;;;2.37;2.07;;;15.10;69.40;;;;;;4952147;28;20320;-90
2024/01/06 10:51:18;;;;;;;4.13;2.03;;;15.10;69.30;;;;;;4956449;28;20206;-91
2024/01/06 10:53:51;;;;;;;5.37;3.33;;;15.10;68.10;;;;;;4955615;28;20214;-92
2024/01/06 10:56:20;;;;;;;8.03;3.60;;;15.20;67.80;;;;;;4957801;28;20575;-93
2024/01/06 10:58:51;;;;;;;4.87;2.17;;;15.10;68.10;;;;;;4956449;28;20246;-92
2024/01/06 11:01:24;;;;;;;8.07;2.97;;;15.20;68.60;;;;;;4955856;28;20210;-92
2024/01/06 11:03:57;;;;;;;6.63;2.13;;;15.20;68.50;;;;;;4954747;28;20205;-91
2024/01/06 11:06:28;;;;;;;1.33;1.23;;;15.10;68.60;;;;;;4957425;28;20282;-92
2024/01/06 11:09:03;;;;;;;3.93;2.33;;;15.20;68.70;;;;;;4951763;28;20560;-92
2024/01/06 11:11:32;;;;;;;2.17;1.33;;;15.20;68.80;;;;;;4954890;28;20567;-93
2024/01/06 11:14:19;;;;;;;7.17;2.93;;;15.20;68.50;;;;;;4950218;28;20225;-82
2024/01/06 11:16:48;;;;;;;4.40;2.37;;;15.20;68.50;;;;;;4951904;28;20293;-82
2024/01/06 11:19:54;;;;;;;3.77;2.37;;;15.20;68.40;;;;;;4954027;28;20209;-81
2024/01/06 11:22:31;;;;;;;3.57;2.43;;;15.20;68.40;;;;;;4952340;28;20595;-81
2024/01/06 11:25:08;;;;;;;5.77;2.33;;;15.20;68.60;;;;;;4956084;28;20214;-80
2024/01/06 11:27:37;;;;;;;3.17;1.87;;;15.20;68.70;;;;;;4954407;28;20551;-83
2024/01/06 11:30:07;;;;;;;2.53;2.07;;;15.30;68.80;;;;;;4946237;28;20337;-81
2024/01/06 11:32:38;;;;;;;2.60;2.13;;;15.30;68.80;;;;;;4951024;28;20200;-82
2024/01/06 11:35:09;;;;;;;5.93;2.83;;;15.40;68.90;;;;;;4949766;28;20674;-82
2024/01/06 11:37:51;;;;;;;8.87;2.40;;;15.50;68.80;;;;;;4953038;28;20241;-82
2024/01/06 11:40:33;;;;;;;2.33;2.13;;;15.50;68.20;;;;;;4952307;28;20198;-82
2024/01/06 11:43:05;;;;;;;3.60;2.77;;;15.50;68.20;;;;;;4948296;28;20263;-82
2024/01/06 11:45:34;;;;;;;5.33;2.60;;;15.60;68.00;;;;;;4953861;28;20297;-82
2024/01/06 11:48:04;;;;;;;2.57;1.43;;;15.60;68.00;;;;;;4955950;28;20221;-82
2024/01/06 11:50:38;;;;;;;4.20;2.40;;;15.70;68.00;;;;;;4953657;28;20253;-82
2024/01/06 11:53:09;;;;;;;2.57;1.47;;;15.80;68.10;;;;;;4956238;28;20210;-90
2024/01/06 11:55:40;;;;;;;2.77;1.57;;;15.90;68.00;;;;;;4959470;28;20305;-89
2024/01/06 11:58:09;;;;;;;4.80;2.47;;;16.00;67.60;;;;;;4956607;28;20285;-90
2024/01/06 12:00:39;;;;;;;2.33;2.10;;;16.10;67.60;;;;;;4954533;28;20541;-93
2024/01/06 12:03:09;;;;;;;2.60;2.20;;;16.10;67.30;;;;;;4954795;28;20210;-93
2024/01/06 12:05:38;;;;;;;2.17;1.97;;;16.20;67.20;;;;;;4958627;28;20234;-93
2024/01/06 12:08:07;;;;;;;3.17;2.00;;;16.30;67.50;;;;;;4953345;28;20658;-93
2024/01/06 12:10:37;;;;;;;7.37;1.67;;;16.30;67.10;;;;;;4955906;28;20222;-89
2024/01/06 12:13:09;;;;;;;1.77;1.50;;;16.30;67.10;;;;;;4958376;28;20239;-89
2024/01/06 12:15:39;;;;;;;4.77;3.57;;;16.40;66.90;;;;;;4954516;28;20209;-89
2024/01/06 12:18:09;;;;;;;5.60;2.47;;;16.40;67.10;;;;;;4956889;28;20697;-89
2024/01/06 12:20:38;;;;;;;4.67;2.57;;;16.50;67.10;;;;;;4956901;28;20560;-90
2024/01/06 12:23:07;;;;;;;5.20;2.10;;;16.40;66.80;;;;;;4955794;28;20293;-89
2024/01/06 12:25:36;;;;;;;1.67;1.37;;;16.50;66.10;;;;;;4957258;28;20198;-93
2024/01/06 12:28:09;;;;;;;4.00;2.37;;;16.50;66.30;;;;;;4958339;28;20211;-89
2024/01/06 12:30:40;;;;;;;1.80;1.43;;;16.60;66.60;;;;;;4957295;28;20234;-90
2024/01/06 12:33:10;;;;;;;3.23;1.67;;;16.50;66.60;;;;;;4954138;28;20206;-90
2024/01/06 12:35:40;;;;;;;4.87;3.07;;;16.60;66.60;;;;;;4956295;28;20241;-91
2024/01/06 12:38:10;;;;;;;2.97;2.07;;;16.60;65.60;;;;;;4956877;28;20202;-93
2024/01/06 12:40:40;;;;;;;6.60;2.10;;;16.70;65.90;;;;;;4957581;28;20321;-92
2024/01/06 12:43:11;;;;;;;5.33;2.53;;;16.70;65.70;;;;;;4952984;28;20230;-93
2024/01/06 12:45:41;;;;;;;3.80;3.10;;;16.70;65.80;;;;;;4953965;28;20617;-92
2024/01/06 12:48:11;;;;;;;3.80;2.30;;;16.70;65.80;;;;;;4953784;28;20249;-93
2024/01/06 12:50:40;;;;;;;1.97;1.83;;;16.80;65.30;;;;;;4954845;28;20201;-94
2024/01/06 12:53:08;;;;;;;5.50;3.30;;;16.70;64.30;;;;;;4961386;28;20205;-94
2024/01/06 12:55:37;;;;;;;5.50;2.07;;;16.70;64.80;;;;;;4959472;28;20234;-93
2024/01/06 12:58:08;;;;;;;3.20;2.13;;;16.70;65.00;;;;;;4956944;28;20206;-92